createdAt,value
2022-11-15T00:00:06.553Z,985.69
2022-11-15T00:01:06.523Z,985.70
2022-11-15T00:02:06.573Z,985.68
2022-11-15T00:03:06.568Z,985.65
2022-11-15T00:04:06.497Z,985.63
2022-11-15T00:05:06.510Z,985.59
2022-11-15T00:06:06.473Z,985.62
2022-11-15T00:07:06.575Z,985.57
2022-11-15T00:08:06.500Z,985.56
2022-11-15T00:09:06.463Z,985.55
2022-11-15T00:10:06.515Z,985.56
2022-11-15T00:11:06.527Z,985.55
2022-11-15T00:12:06.399Z,985.53
2022-11-15T00:13:06.488Z,985.51
2022-11-15T00:14:06.433Z,985.53
2022-11-15T00:15:06.422Z,985.51
2022-11-15T00:16:06.398Z,985.52
2022-11-15T00:17:06.351Z,985.55
2022-11-15T00:18:06.358Z,985.53
2022-11-15T00:19:06.429Z,985.50
2022-11-15T00:20:06.376Z,985.57
2022-11-15T00:21:06.412Z,985.50
2022-11-15T00:22:06.311Z,985.44
2022-11-15T00:23:06.306Z,985.55
2022-11-15T00:24:06.342Z,985.48
2022-11-15T00:25:06.304Z,985.48
2022-11-15T00:26:06.304Z,985.43
2022-11-15T00:27:08.103Z,985.42
2022-11-15T00:28:06.265Z,985.44
2022-11-15T00:29:06.263Z,985.39
2022-11-15T00:30:06.205Z,985.42
2022-11-15T00:31:06.199Z,985.33
2022-11-15T00:32:06.217Z,985.30
2022-11-15T00:33:06.224Z,985.32
2022-11-15T00:34:06.206Z,985.30
2022-11-15T00:35:06.149Z,985.30
2022-11-15T00:36:06.152Z,985.33
2022-11-15T00:37:06.125Z,985.30
2022-11-15T00:38:06.124Z,985.34
2022-11-15T00:39:06.138Z,985.35
2022-11-15T00:40:06.212Z,985.25
2022-11-15T00:41:09.376Z,985.29
2022-11-15T00:42:06.132Z,985.26
2022-11-15T00:43:06.193Z,985.29
2022-11-15T00:44:06.066Z,985.33
2022-11-15T00:45:06.038Z,985.33
2022-11-15T00:46:06.075Z,985.23
2022-11-15T00:47:06.159Z,985.25
2022-11-15T00:48:06.037Z,985.25
2022-11-15T00:49:05.989Z,985.26
2022-11-15T00:50:05.981Z,985.21
2022-11-15T00:51:06.042Z,985.28
2022-11-15T00:52:05.999Z,985.26
2022-11-15T00:53:06.047Z,985.29
2022-11-15T00:54:05.958Z,985.25
2022-11-15T00:55:05.959Z,985.24
2022-11-15T00:56:05.951Z,985.28
2022-11-15T00:57:05.958Z,985.21
2022-11-15T00:58:05.924Z,985.23
2022-11-15T00:59:05.942Z,985.20
2022-11-15T01:00:05.939Z,985.20
2022-11-15T01:01:05.890Z,985.25
2022-11-15T01:02:05.870Z,985.25
2022-11-15T01:03:05.991Z,985.28
2022-11-15T01:04:05.854Z,985.22
2022-11-15T01:05:05.877Z,985.27
2022-11-15T01:06:05.854Z,985.28
2022-11-15T01:07:05.925Z,985.33
2022-11-15T01:08:05.890Z,985.31
2022-11-15T01:09:05.792Z,985.38
2022-11-15T01:10:05.772Z,985.35
2022-11-15T01:11:05.759Z,985.31
2022-11-15T01:12:05.767Z,985.25
2022-11-15T01:13:05.756Z,985.22
2022-11-15T01:14:05.760Z,985.26
2022-11-15T01:15:05.795Z,985.29
2022-11-15T01:16:05.719Z,985.16
2022-11-15T01:17:05.722Z,985.13
2022-11-15T01:18:05.737Z,985.13
2022-11-15T01:19:05.745Z,985.19
2022-11-15T01:20:05.691Z,985.14
2022-11-15T01:21:05.665Z,985.23
2022-11-15T01:22:05.663Z,985.21
2022-11-15T01:23:05.644Z,985.18
2022-11-15T01:24:05.648Z,985.17
2022-11-15T01:25:05.641Z,985.20
2022-11-15T01:26:05.675Z,985.18
2022-11-15T01:27:05.606Z,985.19
2022-11-15T01:28:05.642Z,985.16
2022-11-15T01:29:05.568Z,985.19
2022-11-15T01:30:05.561Z,985.20
2022-11-15T01:31:05.595Z,985.16
2022-11-15T01:32:05.533Z,985.21
2022-11-15T01:33:05.591Z,985.13
2022-11-15T01:34:05.538Z,985.20
2022-11-15T01:35:05.567Z,985.07
2022-11-15T01:36:05.502Z,985.12
2022-11-15T01:37:05.531Z,985.11
2022-11-15T01:38:05.590Z,985.06
2022-11-15T01:39:05.455Z,985.10
2022-11-15T01:40:05.446Z,985.07
2022-11-15T01:41:05.483Z,985.00
2022-11-15T01:42:05.454Z,985.00
2022-11-15T01:43:05.450Z,984.99
2022-11-15T01:44:05.450Z,984.94
2022-11-15T01:45:05.451Z,985.05
2022-11-15T01:46:05.401Z,985.00
2022-11-15T01:47:05.399Z,985.01
2022-11-15T01:48:05.436Z,984.99
2022-11-15T01:49:05.400Z,985.01
2022-11-15T01:50:05.391Z,984.96
2022-11-15T01:51:05.418Z,984.98
2022-11-15T01:52:05.378Z,984.93
2022-11-15T01:53:05.386Z,984.90
2022-11-15T01:54:05.418Z,984.91
2022-11-15T01:55:05.288Z,984.87
2022-11-15T01:56:05.323Z,984.84
2022-11-15T01:57:05.309Z,984.88
2022-11-15T01:58:05.317Z,984.80
2022-11-15T01:59:05.241Z,984.83
2022-11-15T02:00:05.237Z,984.80
2022-11-15T02:01:05.312Z,984.77
2022-11-15T02:02:05.277Z,984.77
2022-11-15T02:03:05.246Z,984.79
2022-11-15T02:04:05.238Z,984.77
2022-11-15T02:05:05.215Z,984.73
2022-11-15T02:06:05.170Z,984.72
2022-11-15T02:07:05.216Z,984.70
2022-11-15T02:08:05.239Z,984.69
2022-11-15T02:09:05.133Z,984.70
2022-11-15T02:10:05.181Z,984.63
2022-11-15T02:11:05.140Z,984.60
2022-11-15T02:12:05.130Z,984.59
2022-11-15T02:13:05.139Z,984.63
2022-11-15T02:14:05.129Z,984.61
2022-11-15T02:15:05.196Z,984.56
2022-11-15T02:16:05.058Z,984.54
2022-11-15T02:17:05.081Z,984.51
2022-11-15T02:18:05.122Z,984.59
2022-11-15T02:19:05.017Z,984.50
2022-11-15T02:20:05.077Z,984.53
2022-11-15T02:21:05.029Z,984.52
2022-11-15T02:22:05.032Z,984.60
2022-11-15T02:23:05.045Z,984.57
2022-11-15T02:24:05.015Z,984.57
2022-11-15T02:25:04.986Z,984.60
2022-11-15T02:26:05.023Z,984.52
2022-11-15T02:27:04.975Z,984.53
2022-11-15T02:28:04.996Z,984.57
2022-11-15T02:29:04.980Z,984.54
2022-11-15T02:30:04.896Z,984.55
2022-11-15T02:31:04.983Z,984.52
2022-11-15T02:32:04.904Z,984.52
2022-11-15T02:33:05.020Z,984.52
2022-11-15T02:34:04.946Z,984.58
2022-11-15T02:35:04.850Z,984.63
2022-11-15T02:36:04.946Z,984.54
2022-11-15T02:37:04.844Z,984.49
2022-11-15T02:38:04.886Z,984.54
2022-11-15T02:39:04.849Z,984.55
2022-11-15T02:40:04.807Z,984.54
2022-11-15T02:41:04.789Z,984.56
2022-11-15T02:42:04.781Z,984.52
2022-11-15T02:43:08.289Z,984.55
2022-11-15T02:44:04.779Z,984.62
2022-11-15T02:45:04.774Z,984.58
2022-11-15T02:46:04.792Z,984.52
2022-11-15T02:47:04.759Z,984.53
2022-11-15T02:48:04.767Z,984.51
2022-11-15T02:49:04.703Z,984.44
2022-11-15T02:50:04.695Z,984.44
2022-11-15T02:51:04.666Z,984.50
2022-11-15T02:52:04.788Z,984.43
2022-11-15T02:53:04.684Z,984.49
2022-11-15T02:54:04.648Z,984.49
2022-11-15T02:55:04.631Z,984.50
2022-11-15T02:56:04.713Z,984.52
2022-11-15T02:57:04.632Z,984.48
2022-11-15T02:58:04.624Z,984.54
2022-11-15T02:59:05.262Z,984.51
2022-11-15T03:00:04.586Z,984.49
2022-11-15T03:01:04.687Z,984.49
2022-11-15T03:02:04.565Z,984.50
2022-11-15T03:03:04.623Z,984.49
2022-11-15T03:04:04.540Z,984.43
2022-11-15T03:05:04.519Z,984.44
2022-11-15T03:06:04.584Z,984.41
2022-11-15T03:07:04.562Z,984.42
2022-11-15T03:08:04.500Z,984.42
2022-11-15T03:09:04.527Z,984.42
2022-11-15T03:10:04.508Z,984.35
2022-11-15T03:11:04.498Z,984.41
2022-11-15T03:12:04.561Z,984.37
2022-11-15T03:13:04.475Z,984.42
2022-11-15T03:14:04.468Z,984.48
2022-11-15T03:15:04.464Z,984.44
2022-11-15T03:16:04.403Z,984.45
2022-11-15T03:17:04.429Z,984.49
2022-11-15T03:18:04.426Z,984.47
2022-11-15T03:19:04.489Z,984.50
2022-11-15T03:20:04.576Z,984.48
2022-11-15T03:21:04.400Z,984.53
2022-11-15T03:22:04.337Z,984.50
2022-11-15T03:23:04.353Z,984.49
2022-11-15T03:24:04.398Z,984.49
2022-11-15T03:25:04.405Z,984.46
2022-11-15T03:26:04.279Z,984.49
2022-11-15T03:27:04.273Z,984.53
2022-11-15T03:28:04.368Z,984.55
2022-11-15T03:29:04.366Z,984.56
2022-11-15T03:30:04.244Z,984.50
2022-11-15T03:31:04.288Z,984.52
2022-11-15T03:32:04.235Z,984.52
2022-11-15T03:33:04.228Z,984.51
2022-11-15T03:34:04.251Z,984.49
2022-11-15T03:35:04.225Z,984.46
2022-11-15T03:36:04.194Z,984.51
2022-11-15T03:37:04.232Z,984.54
2022-11-15T03:38:04.259Z,984.51
2022-11-15T03:39:04.172Z,984.47
2022-11-15T03:40:04.148Z,984.46
2022-11-15T03:41:04.156Z,984.50
2022-11-15T03:42:04.179Z,984.48
2022-11-15T03:43:04.094Z,984.47
2022-11-15T03:44:04.106Z,984.41
2022-11-15T03:45:04.083Z,984.39
2022-11-15T03:46:04.195Z,984.37
2022-11-15T03:47:04.134Z,984.39
2022-11-15T03:48:04.073Z,984.35
2022-11-15T03:49:04.047Z,984.36
2022-11-15T03:50:04.066Z,984.27
2022-11-15T03:51:04.027Z,984.24
2022-11-15T03:52:04.030Z,984.25
2022-11-15T03:53:03.997Z,984.21
2022-11-15T03:54:04.016Z,984.20
2022-11-15T03:55:04.022Z,984.18
2022-11-15T03:56:03.989Z,984.21
2022-11-15T03:57:04.051Z,984.28
2022-11-15T03:58:03.951Z,984.31
2022-11-15T03:59:04.068Z,984.30
2022-11-15T04:00:03.932Z,984.26
2022-11-15T04:01:03.982Z,984.27
2022-11-15T04:02:04.024Z,984.30
2022-11-15T04:03:03.999Z,984.35
2022-11-15T04:04:03.871Z,984.32
2022-11-15T04:05:03.929Z,984.32
2022-11-15T04:06:03.865Z,984.30
2022-11-15T04:07:04.006Z,984.30
2022-11-15T04:08:03.896Z,984.34
2022-11-15T04:09:03.852Z,984.37
2022-11-15T04:10:03.837Z,984.41
2022-11-15T04:11:03.839Z,984.44
2022-11-15T04:12:03.929Z,984.35
2022-11-15T04:13:03.804Z,984.43
2022-11-15T04:14:03.820Z,984.40
2022-11-15T04:15:03.816Z,984.38
2022-11-15T04:16:03.820Z,984.40
2022-11-15T04:17:03.789Z,984.34
2022-11-15T04:18:03.729Z,984.39
2022-11-15T04:19:03.733Z,984.42
2022-11-15T04:20:03.732Z,984.38
2022-11-15T04:21:03.840Z,984.39
2022-11-15T04:22:03.812Z,984.34
2022-11-15T04:23:03.682Z,984.29
2022-11-15T04:24:03.648Z,984.33
2022-11-15T04:25:03.719Z,984.37
2022-11-15T04:26:03.631Z,984.30
2022-11-15T04:27:03.665Z,984.33
2022-11-15T04:28:03.831Z,984.34
2022-11-15T04:29:03.634Z,984.29
2022-11-15T04:30:03.605Z,984.33
2022-11-15T04:31:03.593Z,984.29
2022-11-15T04:32:03.732Z,984.30
2022-11-15T04:33:03.592Z,984.23
2022-11-15T04:34:03.657Z,984.28
2022-11-15T04:35:03.652Z,984.30
2022-11-15T04:36:03.533Z,984.34
2022-11-15T04:37:03.526Z,984.36
2022-11-15T04:38:03.577Z,984.33
2022-11-15T04:39:03.535Z,984.29
2022-11-15T04:40:03.566Z,984.32
2022-11-15T04:41:03.523Z,984.28
2022-11-15T04:42:03.531Z,984.32
2022-11-15T04:43:04.228Z,984.27
2022-11-15T04:44:03.535Z,984.26
2022-11-15T04:45:03.477Z,984.27
2022-11-15T04:46:03.516Z,984.29
2022-11-15T04:47:03.417Z,984.28
2022-11-15T04:48:03.450Z,984.29
2022-11-15T04:49:03.581Z,984.32
2022-11-15T04:50:03.400Z,984.36
2022-11-15T04:51:03.451Z,984.29
2022-11-15T04:52:03.423Z,984.32
2022-11-15T04:53:03.388Z,984.33
2022-11-15T04:54:03.443Z,984.25
2022-11-15T04:55:07.888Z,984.30
2022-11-15T04:56:04.352Z,984.32
2022-11-15T04:57:03.326Z,984.29
2022-11-15T04:58:03.392Z,984.25
2022-11-15T04:59:03.385Z,984.25
2022-11-15T05:00:03.308Z,984.29
2022-11-15T05:01:03.372Z,984.26
2022-11-15T05:02:03.251Z,984.27
2022-11-15T05:03:03.255Z,984.23
2022-11-15T05:04:03.343Z,984.33
2022-11-15T05:05:03.267Z,984.28
2022-11-15T05:06:03.250Z,984.27
2022-11-15T05:07:03.284Z,984.29
2022-11-15T05:08:03.172Z,984.23
2022-11-15T05:09:03.314Z,984.23
2022-11-15T05:10:03.144Z,984.21
2022-11-15T05:11:03.142Z,984.20
2022-11-15T05:12:03.213Z,984.19
2022-11-15T05:13:03.240Z,984.15
2022-11-15T05:14:03.121Z,984.11
2022-11-15T05:15:03.130Z,984.11
2022-11-15T05:16:03.292Z,984.11
2022-11-15T05:17:03.141Z,984.08
2022-11-15T05:18:03.117Z,984.05
2022-11-15T05:19:03.089Z,984.04
2022-11-15T05:20:03.055Z,984.06
2022-11-15T05:21:03.175Z,984.04
2022-11-15T05:22:03.043Z,984.11
2022-11-15T05:23:03.002Z,984.10
2022-11-15T05:24:03.017Z,984.04
2022-11-15T05:25:03.021Z,984.01
2022-11-15T05:26:08.849Z,984.04
2022-11-15T05:27:04.001Z,983.98
2022-11-15T05:28:03.000Z,984.00
2022-11-15T05:29:02.959Z,984.01
2022-11-15T05:30:02.934Z,983.99
2022-11-15T05:31:02.940Z,983.98
2022-11-15T05:32:02.956Z,983.99
2022-11-15T05:33:02.917Z,983.95
2022-11-15T05:34:02.967Z,984.02
2022-11-15T05:35:02.935Z,984.03
2022-11-15T05:36:03.006Z,983.97
2022-11-15T05:37:02.884Z,983.94
2022-11-15T05:38:02.849Z,983.99
2022-11-15T05:39:02.925Z,983.95
2022-11-15T05:40:02.861Z,983.94
2022-11-15T05:41:02.835Z,983.95
2022-11-15T05:42:02.941Z,983.93
2022-11-15T05:43:02.803Z,983.91
2022-11-15T05:44:02.783Z,983.95
2022-11-15T05:45:02.771Z,983.97
2022-11-15T05:46:02.872Z,983.89
2022-11-15T05:47:02.978Z,983.93
2022-11-15T05:48:02.741Z,983.87
2022-11-15T05:49:09.814Z,983.89
2022-11-15T05:50:02.772Z,983.96
2022-11-15T05:51:02.721Z,983.95
2022-11-15T05:52:03.042Z,983.90
2022-11-15T05:53:05.382Z,983.93
2022-11-15T05:54:02.675Z,983.86
2022-11-15T05:55:02.700Z,983.91
2022-11-15T05:56:02.672Z,983.81
2022-11-15T05:57:02.705Z,983.81
2022-11-15T05:58:02.767Z,983.81
2022-11-15T05:59:02.618Z,983.85
2022-11-15T06:00:02.636Z,983.85
2022-11-15T06:01:02.670Z,983.85
2022-11-15T06:02:02.664Z,983.84
2022-11-15T06:03:02.632Z,983.81
2022-11-15T06:04:02.569Z,983.86
2022-11-15T06:05:02.598Z,983.84
2022-11-15T06:06:02.591Z,983.86
2022-11-15T06:07:02.701Z,983.85
2022-11-15T06:08:02.575Z,983.82
2022-11-15T06:09:02.513Z,983.84
2022-11-15T06:10:02.589Z,983.87
2022-11-15T06:11:02.505Z,983.81
2022-11-15T06:12:02.489Z,983.89
2022-11-15T06:13:02.496Z,983.88
2022-11-15T06:14:02.541Z,983.85
2022-11-15T06:15:02.445Z,983.87
2022-11-15T06:16:02.954Z,983.86
2022-11-15T06:17:05.981Z,983.85
2022-11-15T06:18:03.980Z,983.80
2022-11-15T06:19:02.409Z,983.80
2022-11-15T06:20:02.411Z,983.82
2022-11-15T06:21:02.397Z,983.86
2022-11-15T06:22:02.375Z,983.84
2022-11-15T06:23:02.497Z,983.79
2022-11-15T06:24:02.355Z,983.81
2022-11-15T06:25:05.388Z,983.81
2022-11-15T06:26:02.368Z,983.77
2022-11-15T06:27:02.331Z,983.79
2022-11-15T06:28:02.399Z,983.75
2022-11-15T06:29:02.455Z,983.81
2022-11-15T06:30:02.321Z,983.79
2022-11-15T06:31:02.312Z,983.78
2022-11-15T06:32:02.257Z,983.79
2022-11-15T06:33:02.275Z,983.77
2022-11-15T06:34:02.310Z,983.71
2022-11-15T06:35:02.313Z,983.79
2022-11-15T06:36:02.261Z,983.75
2022-11-15T06:37:02.238Z,983.74
2022-11-15T06:38:02.212Z,983.80
2022-11-15T06:39:02.176Z,983.78
2022-11-15T06:40:02.173Z,983.77
2022-11-15T06:41:02.229Z,983.80
2022-11-15T06:42:02.185Z,983.83
2022-11-15T06:43:02.142Z,983.82
2022-11-15T06:44:02.159Z,983.81
2022-11-15T06:45:02.103Z,983.80
2022-11-15T06:46:02.170Z,983.76
2022-11-15T06:47:02.095Z,983.71
2022-11-15T06:48:02.093Z,983.76
2022-11-15T06:49:06.697Z,983.79
2022-11-15T06:50:03.074Z,983.79
2022-11-15T06:51:02.073Z,983.72
2022-11-15T06:52:02.085Z,983.75
2022-11-15T06:53:02.057Z,983.76
2022-11-15T06:54:02.178Z,983.79
2022-11-15T06:55:02.004Z,983.77
2022-11-15T06:56:02.078Z,983.78
2022-11-15T06:57:01.977Z,983.72
2022-11-15T06:58:01.977Z,983.72
2022-11-15T06:59:02.014Z,983.71
2022-11-15T07:00:02.078Z,983.78
2022-11-15T07:01:02.052Z,983.69
2022-11-15T07:02:01.949Z,983.73
2022-11-15T07:03:01.929Z,983.74
2022-11-15T07:04:01.911Z,983.75
2022-11-15T07:05:01.950Z,983.72
2022-11-15T07:06:07.152Z,983.74
2022-11-15T07:07:02.978Z,983.68
2022-11-15T07:08:01.920Z,983.72
2022-11-15T07:09:01.905Z,983.73
2022-11-15T07:10:01.873Z,983.72
2022-11-15T07:11:01.855Z,983.70
2022-11-15T07:12:07.294Z,983.69
2022-11-15T07:13:02.842Z,983.70
2022-11-15T07:14:01.787Z,983.72
2022-11-15T07:15:01.842Z,983.68
2022-11-15T07:16:01.837Z,983.71
2022-11-15T07:17:01.846Z,983.66
2022-11-15T07:18:01.833Z,983.70
2022-11-15T07:19:01.744Z,983.70
2022-11-15T07:20:01.763Z,983.69
2022-11-15T07:21:01.796Z,983.74
2022-11-15T07:22:01.838Z,983.75
2022-11-15T07:23:01.727Z,983.78
2022-11-15T07:24:01.709Z,983.69
2022-11-15T07:25:01.678Z,983.78
2022-11-15T07:26:01.695Z,983.78
2022-11-15T07:27:01.827Z,983.77
2022-11-15T07:28:01.772Z,983.83
2022-11-15T07:29:01.709Z,983.73
2022-11-15T07:30:01.690Z,983.70
2022-11-15T07:31:01.651Z,983.67
2022-11-15T07:32:01.664Z,983.76
2022-11-15T07:33:01.656Z,983.71
2022-11-15T07:34:01.659Z,983.75
2022-11-15T07:35:01.579Z,983.68
2022-11-15T07:36:01.600Z,983.66
2022-11-15T07:37:01.739Z,983.65
2022-11-15T07:38:01.607Z,983.72
2022-11-15T07:39:01.544Z,983.75
2022-11-15T07:40:01.560Z,983.70
2022-11-15T07:41:01.495Z,983.71
2022-11-15T07:42:01.511Z,983.68
2022-11-15T07:43:01.571Z,983.70
2022-11-15T07:44:01.513Z,983.68
2022-11-15T07:45:01.473Z,983.69
2022-11-15T07:46:01.539Z,983.68
2022-11-15T07:47:01.423Z,983.65
2022-11-15T07:48:01.450Z,983.70
2022-11-15T07:49:01.470Z,983.70
2022-11-15T07:50:01.452Z,983.69
2022-11-15T07:51:01.467Z,983.68
2022-11-15T07:52:01.366Z,983.68
2022-11-15T07:53:01.362Z,983.69
2022-11-15T07:54:01.365Z,983.70
2022-11-15T07:55:01.352Z,983.69
2022-11-15T07:56:01.343Z,983.68
2022-11-15T07:57:06.950Z,983.68
2022-11-15T07:58:02.341Z,983.68
2022-11-15T07:59:01.311Z,983.64
2022-11-15T08:00:01.334Z,983.62
2022-11-15T08:01:01.408Z,983.62
2022-11-15T08:02:01.505Z,983.60
2022-11-15T08:03:01.305Z,983.54
2022-11-15T08:04:01.263Z,983.57
2022-11-15T08:05:01.299Z,983.56
2022-11-15T08:06:01.293Z,983.59
2022-11-15T08:07:01.336Z,983.56
2022-11-15T08:08:01.389Z,983.58
2022-11-15T08:09:01.259Z,983.57
2022-11-15T08:10:02.200Z,983.59
2022-11-15T08:11:01.254Z,983.56
2022-11-15T08:12:01.265Z,983.51
2022-11-15T08:13:01.188Z,983.55
2022-11-15T08:14:01.172Z,983.52
2022-11-15T08:15:01.169Z,983.52
2022-11-15T08:16:01.182Z,983.48
2022-11-15T08:17:01.200Z,983.43
2022-11-15T08:18:01.114Z,983.44
2022-11-15T08:19:01.150Z,983.50
2022-11-15T08:20:01.877Z,983.46
2022-11-15T08:21:01.147Z,983.43
2022-11-15T08:22:01.108Z,983.43
2022-11-15T08:23:01.080Z,983.46
2022-11-15T08:24:01.061Z,983.41
2022-11-15T08:25:01.024Z,983.45
2022-11-15T08:26:01.073Z,983.42
2022-11-15T08:27:01.069Z,983.42
2022-11-15T08:28:01.112Z,983.43
2022-11-15T08:29:01.103Z,983.47
2022-11-15T08:30:00.980Z,983.49
2022-11-15T08:31:01.011Z,983.39
2022-11-15T08:32:01.025Z,983.34
2022-11-15T08:33:01.012Z,983.45
2022-11-15T08:34:00.954Z,983.39
2022-11-15T08:35:01.016Z,983.40
2022-11-15T08:36:01.166Z,983.40
2022-11-15T08:37:01.490Z,983.44
2022-11-15T08:38:00.879Z,983.39
2022-11-15T08:39:00.903Z,983.43
2022-11-15T08:40:00.869Z,983.40
2022-11-15T08:41:01.022Z,983.34
2022-11-15T08:42:01.509Z,983.36
2022-11-15T08:43:01.187Z,983.41
2022-11-15T08:44:00.879Z,983.38
2022-11-15T08:45:00.998Z,983.36
2022-11-15T08:46:00.979Z,983.37
2022-11-15T08:47:00.952Z,983.40
2022-11-15T08:48:00.820Z,983.30
2022-11-15T08:49:00.821Z,983.30
2022-11-15T08:50:00.744Z,983.33
2022-11-15T08:51:00.853Z,983.34
2022-11-15T08:52:00.781Z,983.31
2022-11-15T08:53:00.759Z,983.34
2022-11-15T08:54:01.247Z,983.33
2022-11-15T08:55:00.702Z,983.33
2022-11-15T08:56:00.730Z,983.30
2022-11-15T08:57:00.747Z,983.35
2022-11-15T08:58:01.091Z,983.31
2022-11-15T08:59:00.694Z,983.22
2022-11-15T09:00:00.688Z,983.32
2022-11-15T09:01:00.641Z,983.35
2022-11-15T09:02:00.701Z,983.34
2022-11-15T09:03:00.701Z,983.32
2022-11-15T09:04:00.751Z,983.35
2022-11-15T09:05:00.711Z,983.36
2022-11-15T09:06:00.757Z,983.37
2022-11-15T09:07:01.073Z,983.36
2022-11-15T09:08:00.828Z,983.41
2022-11-15T09:09:00.580Z,983.34
2022-11-15T09:10:00.547Z,983.34
2022-11-15T09:11:00.629Z,983.40
2022-11-15T09:12:02.661Z,983.42
2022-11-15T09:13:00.490Z,983.40
2022-11-15T09:14:00.877Z,983.44
2022-11-15T09:15:01.087Z,983.38
2022-11-15T09:16:00.484Z,983.43
2022-11-15T09:17:00.519Z,983.46
2022-11-15T09:18:00.494Z,983.45
2022-11-15T09:19:00.779Z,983.48
2022-11-15T09:20:00.449Z,983.47
2022-11-15T09:21:00.638Z,983.49
2022-11-15T09:22:00.872Z,983.58
2022-11-15T09:23:00.434Z,983.50
2022-11-15T09:24:00.386Z,983.57
2022-11-15T09:25:00.397Z,983.56
2022-11-15T09:26:00.506Z,983.60
2022-11-15T09:27:00.395Z,983.58
2022-11-15T09:28:00.442Z,983.57
2022-11-15T09:29:00.362Z,983.57
2022-11-15T09:30:00.403Z,983.59
2022-11-15T09:31:00.325Z,983.57
2022-11-15T09:32:00.347Z,983.52
2022-11-15T09:33:00.320Z,983.49
2022-11-15T09:34:00.275Z,983.49
2022-11-15T09:35:00.322Z,983.49
2022-11-15T09:36:00.279Z,983.45
2022-11-15T09:37:00.281Z,983.40
2022-11-15T09:38:00.263Z,983.45
2022-11-15T09:39:00.255Z,983.39
2022-11-15T09:40:00.261Z,983.37
2022-11-15T09:41:00.202Z,983.40
2022-11-15T09:42:00.234Z,983.37
2022-11-15T09:43:00.174Z,983.41
2022-11-15T09:44:00.195Z,983.39
2022-11-15T09:45:00.162Z,983.35
2022-11-15T09:46:00.148Z,983.31
2022-11-15T09:47:00.310Z,983.42
2022-11-15T09:48:00.194Z,983.35
2022-11-15T09:49:00.165Z,983.35
2022-11-15T09:50:00.120Z,983.33
2022-11-15T09:51:00.158Z,983.41
2022-11-15T09:52:00.202Z,983.33
2022-11-15T09:53:00.048Z,983.30
2022-11-15T09:55:01.053Z,983.25
2022-11-15T09:56:00.087Z,983.24
2022-11-15T09:57:00.022Z,983.28
2022-11-15T09:58:00.072Z,983.23
2022-11-15T09:58:59.992Z,983.23
2022-11-15T10:00:12.297Z,983.21
2022-11-15T10:01:01.032Z,983.25
2022-11-15T10:01:59.987Z,983.23
2022-11-15T10:02:59.983Z,983.20
2022-11-15T10:04:00.053Z,983.18
2022-11-15T10:04:59.921Z,983.15
2022-11-15T10:05:59.939Z,983.17
2022-11-15T10:06:59.965Z,983.13
2022-11-15T10:08:00.113Z,983.23
2022-11-15T10:09:00.026Z,983.17
2022-11-15T10:09:59.898Z,983.14
2022-11-15T10:11:30.409Z,983.07
2022-11-15T10:12:00.860Z,983.11
2022-11-15T10:12:59.876Z,983.12
2022-11-15T10:13:59.855Z,983.01
2022-11-15T10:14:59.828Z,982.97
2022-11-15T10:15:59.872Z,983.03
2022-11-15T10:16:59.942Z,982.97
2022-11-15T10:17:59.856Z,982.99
2022-11-15T10:18:59.757Z,982.94
2022-11-15T10:20:05.279Z,982.90
2022-11-15T10:21:00.799Z,982.86
2022-11-15T10:21:59.789Z,982.82
2022-11-15T10:22:59.729Z,982.87
2022-11-15T10:23:59.737Z,982.84
2022-11-15T10:24:59.699Z,982.90
2022-11-15T10:26:05.338Z,982.86
2022-11-15T10:27:00.731Z,982.81
2022-11-15T10:27:59.660Z,982.76
2022-11-15T10:28:59.663Z,982.68
2022-11-15T10:29:59.668Z,982.70
2022-11-15T10:30:59.636Z,982.66
2022-11-15T10:31:59.720Z,982.62
2022-11-15T10:32:59.725Z,982.63
2022-11-15T10:33:59.687Z,982.60
2022-11-15T10:34:59.908Z,982.56
2022-11-15T10:35:59.578Z,982.53
2022-11-15T10:36:59.593Z,982.50
2022-11-15T10:37:59.599Z,982.44
2022-11-15T10:38:59.571Z,982.42
2022-11-15T10:39:59.652Z,982.49
2022-11-15T10:40:59.568Z,982.47
2022-11-15T10:42:00.523Z,982.49
2022-11-15T10:42:59.536Z,982.41
2022-11-15T10:43:59.528Z,982.38
2022-11-15T10:44:59.565Z,982.32
2022-11-15T10:46:09.109Z,982.40
2022-11-15T10:47:00.549Z,982.31
2022-11-15T10:47:59.509Z,982.30
2022-11-15T10:48:59.517Z,982.31
2022-11-15T10:49:59.424Z,982.32
2022-11-15T10:50:59.443Z,982.34
2022-11-15T10:51:59.415Z,982.35
2022-11-15T10:52:59.467Z,982.36
2022-11-15T10:53:59.497Z,982.30
2022-11-15T10:54:59.402Z,982.30
2022-11-15T10:55:59.371Z,982.24
2022-11-15T10:56:59.555Z,982.27
2022-11-15T10:57:59.362Z,982.20
2022-11-15T10:58:59.332Z,982.23
2022-11-15T10:59:59.317Z,982.20
2022-11-15T11:00:59.384Z,982.18
2022-11-15T11:01:59.341Z,982.16
2022-11-15T11:02:59.355Z,982.16
2022-11-15T11:03:59.265Z,982.14
2022-11-15T11:04:59.258Z,982.07
2022-11-15T11:05:59.265Z,982.08
2022-11-15T11:06:59.321Z,982.09
2022-11-15T11:07:59.303Z,982.03
2022-11-15T11:08:59.225Z,982.03
2022-11-15T11:09:59.240Z,982.01
2022-11-15T11:11:02.780Z,982.04
2022-11-15T11:11:59.300Z,982.00
2022-11-15T11:12:59.175Z,982.01
2022-11-15T11:13:59.194Z,982.02
2022-11-15T11:14:59.160Z,981.94
2022-11-15T11:15:59.204Z,981.95
2022-11-15T11:16:59.152Z,981.85
2022-11-15T11:17:59.135Z,981.82
2022-11-15T11:18:59.118Z,981.81
2022-11-15T11:19:59.242Z,981.79
2022-11-15T11:20:59.155Z,981.82
2022-11-15T11:21:59.119Z,981.77
2022-11-15T11:22:59.139Z,981.77
2022-11-15T11:23:59.085Z,981.84
2022-11-15T11:24:59.064Z,981.72
2022-11-15T11:25:59.094Z,981.73
2022-11-15T11:26:59.071Z,981.76
2022-11-15T11:27:59.222Z,981.68
2022-11-15T11:28:59.248Z,981.69
2022-11-15T11:29:59.119Z,981.75
2022-11-15T11:30:58.987Z,981.73
2022-11-15T11:31:58.962Z,981.68
2022-11-15T11:32:58.981Z,981.65
2022-11-15T11:33:59.025Z,981.66
2022-11-15T11:34:58.998Z,981.63
2022-11-15T11:35:58.963Z,981.61
2022-11-15T11:36:59.107Z,981.63
2022-11-15T11:37:59.064Z,981.56
2022-11-15T11:38:58.928Z,981.62
2022-11-15T11:39:58.905Z,981.53
2022-11-15T11:40:58.870Z,981.52
2022-11-15T11:41:58.873Z,981.51
2022-11-15T11:42:58.877Z,981.49
2022-11-15T11:43:58.980Z,981.50
2022-11-15T11:44:58.902Z,981.48
2022-11-15T11:46:01.882Z,981.48
2022-11-15T11:46:58.980Z,981.47
2022-11-15T11:47:58.941Z,981.38
2022-11-15T11:48:58.796Z,981.39
2022-11-15T11:49:58.821Z,981.38
2022-11-15T11:50:58.962Z,981.35
2022-11-15T11:51:58.903Z,981.40
2022-11-15T11:53:03.675Z,981.35
2022-11-15T11:53:59.758Z,981.32
2022-11-15T11:54:58.806Z,981.30
2022-11-15T11:55:58.784Z,981.30
2022-11-15T11:56:58.716Z,981.22
2022-11-15T11:57:58.680Z,981.23
2022-11-15T11:58:58.788Z,981.18
2022-11-15T11:59:58.682Z,981.12
2022-11-15T12:00:58.658Z,981.10
2022-11-15T12:01:58.810Z,981.04
2022-11-15T12:02:58.908Z,981.09
2022-11-15T12:03:58.970Z,981.06
2022-11-15T12:04:58.760Z,981.04
2022-11-15T12:05:58.588Z,981.01
2022-11-15T12:06:58.687Z,981.03
2022-11-15T12:08:03.158Z,981.11
2022-11-15T12:08:59.574Z,981.09
2022-11-15T12:09:58.548Z,981.09
2022-11-15T12:10:58.543Z,981.08
2022-11-15T12:11:58.558Z,981.08
2022-11-15T12:12:58.537Z,981.08
2022-11-15T12:13:58.583Z,980.97
2022-11-15T12:14:58.494Z,980.98
2022-11-15T12:15:58.527Z,980.89
2022-11-15T12:16:58.560Z,980.91
2022-11-15T12:17:58.461Z,980.89
2022-11-15T12:18:58.456Z,980.90
2022-11-15T12:19:58.455Z,980.83
2022-11-15T12:20:58.458Z,980.80
2022-11-15T12:21:58.459Z,980.76
2022-11-15T12:22:58.419Z,980.72
2022-11-15T12:23:58.417Z,980.77
2022-11-15T12:24:58.399Z,980.75
2022-11-15T12:25:58.370Z,980.73
2022-11-15T12:26:58.426Z,980.65
2022-11-15T12:27:58.343Z,980.64
2022-11-15T12:29:07.326Z,980.65